createdAt,value
2018-09-29T00:01:50.420Z,99.90
2018-09-29T00:03:54.163Z,99.90
2018-09-29T00:05:57.923Z,99.90
2018-09-29T00:08:01.902Z,99.90
2018-09-29T00:10:05.699Z,99.90
2018-09-29T00:12:09.568Z,99.90
2018-09-29T00:14:13.330Z,99.90
2018-09-29T00:16:17.139Z,99.90
2018-09-29T00:18:20.994Z,99.90
2018-09-29T00:20:24.785Z,99.90
2018-09-29T00:22:28.523Z,99.90
2018-09-29T00:24:32.337Z,99.90
2018-09-29T00:26:36.085Z,99.90
2018-09-29T00:28:39.839Z,99.90
2018-09-29T00:30:43.807Z,99.90
2018-09-29T00:32:47.763Z,99.90
2018-09-29T00:34:51.529Z,99.90
2018-09-29T00:36:55.292Z,99.90
2018-09-29T00:38:59.089Z,99.90
2018-09-29T00:41:02.871Z,99.90
2018-09-29T00:43:06.848Z,99.90
2018-09-29T00:45:10.824Z,99.90
2018-09-29T00:47:14.611Z,99.90
2018-09-29T00:49:18.387Z,99.90
2018-09-29T00:51:22.199Z,99.90
2018-09-29T00:53:25.954Z,99.90
2018-09-29T00:55:29.929Z,99.90
2018-09-29T00:57:33.649Z,99.90
2018-09-29T00:59:37.420Z,99.90
2018-09-29T01:01:41.182Z,99.90
2018-09-29T01:03:44.976Z,99.90
2018-09-29T01:05:48.731Z,99.90
2018-09-29T01:07:52.537Z,99.90
2018-09-29T01:09:56.418Z,99.90
2018-09-29T01:12:00.160Z,99.90
2018-09-29T01:14:03.882Z,99.90
2018-09-29T01:16:07.850Z,99.90
2018-09-29T01:18:11.637Z,99.90
2018-09-29T01:20:15.491Z,99.90
2018-09-29T01:22:19.447Z,99.90
2018-09-29T01:24:23.211Z,99.90
2018-09-29T01:26:26.942Z,99.90
2018-09-29T01:28:30.795Z,99.90
2018-09-29T01:30:34.513Z,99.90
2018-09-29T01:32:38.303Z,99.90
2018-09-29T01:34:42.056Z,99.90
2018-09-29T01:36:45.801Z,99.90
2018-09-29T01:38:49.576Z,99.90
2018-09-29T01:40:53.338Z,99.90
2018-09-29T01:42:57.057Z,99.90
2018-09-29T01:45:01.067Z,99.90
2018-09-29T01:47:04.851Z,99.90
2018-09-29T01:49:08.588Z,99.90
2018-09-29T01:51:12.385Z,99.90
2018-09-29T01:53:16.140Z,99.90
2018-09-29T01:55:19.889Z,99.90
2018-09-29T01:57:23.711Z,99.90
2018-09-29T01:59:27.511Z,99.90
2018-09-29T02:01:31.295Z,99.90
2018-09-29T02:03:35.009Z,99.90
2018-09-29T02:05:39.446Z,99.90
2018-09-29T02:07:43.204Z,99.90
2018-09-29T02:09:47.015Z,99.90
2018-09-29T02:11:50.765Z,99.90
2018-09-29T02:13:54.565Z,99.90
2018-09-29T02:16:00.621Z,99.90
2018-09-29T02:18:04.393Z,99.90
2018-09-29T02:20:08.167Z,99.90
2018-09-29T02:22:11.943Z,99.90
2018-09-29T02:24:15.702Z,99.90
2018-09-29T02:26:19.484Z,99.90
2018-09-29T02:28:23.258Z,99.90
2018-09-29T02:30:27.001Z,99.90
2018-09-29T02:32:30.793Z,99.90
2018-09-29T02:34:34.510Z,99.90
2018-09-29T02:36:38.264Z,99.90
2018-09-29T02:38:42.665Z,99.90
2018-09-29T02:40:46.590Z,99.90
2018-09-29T02:42:50.414Z,99.90
2018-09-29T02:44:54.195Z,99.90
2018-09-29T02:46:57.951Z,99.90
2018-09-29T02:49:01.683Z,99.90
2018-09-29T02:51:05.627Z,99.90
2018-09-29T02:53:09.643Z,99.90
2018-09-29T02:55:13.424Z,99.90
2018-09-29T02:57:17.197Z,99.90
2018-09-29T02:59:21.065Z,99.90
2018-09-29T03:01:24.848Z,99.90
2018-09-29T03:03:28.798Z,99.90
2018-09-29T03:05:32.592Z,99.90
2018-09-29T03:07:36.666Z,99.90
2018-09-29T03:09:40.418Z,99.90
2018-09-29T03:11:44.198Z,99.90
2018-09-29T03:13:48.243Z,99.90
2018-09-29T03:15:51.980Z,99.90
2018-09-29T03:17:55.787Z,99.90
2018-09-29T03:19:59.549Z,99.90
2018-09-29T03:22:03.374Z,99.90
2018-09-29T03:24:07.178Z,99.90
2018-09-29T03:26:10.953Z,99.90
2018-09-29T03:28:14.740Z,99.90
2018-09-29T03:30:18.682Z,99.90
2018-09-29T03:32:22.436Z,99.90
2018-09-29T03:34:26.201Z,99.90
2018-09-29T03:36:29.982Z,99.90
2018-09-29T03:38:33.746Z,99.90
2018-09-29T03:40:37.535Z,99.90
2018-09-29T03:42:41.252Z,99.90
2018-09-29T03:44:45.017Z,99.90
2018-09-29T03:46:48.809Z,99.90
2018-09-29T03:48:52.588Z,99.90
2018-09-29T03:50:56.310Z,99.90
2018-09-29T03:53:00.132Z,99.90
2018-09-29T03:55:03.894Z,99.90
2018-09-29T03:57:07.669Z,99.90
2018-09-29T03:59:11.643Z,99.90
2018-09-29T04:01:15.419Z,99.90
2018-09-29T04:03:19.163Z,99.90
2018-09-29T04:05:22.931Z,99.90
2018-09-29T04:07:26.701Z,99.90
2018-09-29T04:09:30.490Z,99.90
2018-09-29T04:11:34.267Z,99.90
2018-09-29T04:13:38.238Z,99.90
2018-09-29T04:15:42.149Z,99.90
2018-09-29T04:17:45.947Z,99.90
2018-09-29T04:19:49.761Z,99.90
2018-09-29T04:21:53.509Z,99.90
2018-09-29T04:23:57.435Z,99.90
2018-09-29T04:26:01.177Z,99.90
2018-09-29T04:28:04.973Z,99.90
2018-09-29T04:30:08.749Z,99.90
2018-09-29T04:32:12.523Z,99.90
2018-09-29T04:34:16.348Z,99.90
2018-09-29T04:36:20.126Z,99.90
2018-09-29T04:38:23.840Z,99.90
2018-09-29T04:40:27.616Z,99.90
2018-09-29T04:42:31.379Z,99.90
2018-09-29T04:44:35.142Z,99.90
2018-09-29T04:46:39.383Z,99.90
2018-09-29T04:48:43.145Z,99.90
2018-09-29T04:50:46.879Z,99.90
2018-09-29T04:52:50.665Z,99.90
2018-09-29T04:54:54.454Z,99.90
2018-09-29T04:56:58.201Z,99.90
2018-09-29T04:59:02.046Z,99.90
2018-09-29T05:01:07.202Z,99.90
2018-09-29T05:03:11.004Z,99.90
2018-09-29T05:05:14.829Z,99.90
2018-09-29T05:07:18.846Z,99.90
2018-09-29T05:09:22.806Z,99.90
2018-09-29T05:11:26.846Z,99.90
2018-09-29T05:13:30.863Z,99.90
2018-09-29T05:15:35.118Z,99.90
2018-09-29T05:17:39.250Z,99.90
2018-09-29T05:19:43.285Z,99.90
2018-09-29T05:21:47.416Z,99.90
2018-09-29T05:23:51.661Z,99.90
2018-09-29T05:25:55.778Z,99.90
2018-09-29T05:27:59.820Z,99.90
2018-09-29T05:30:03.836Z,99.90
2018-09-29T05:32:07.844Z,99.90
2018-09-29T05:34:12.012Z,99.90
2018-09-29T05:36:16.168Z,99.90
2018-09-29T05:38:20.358Z,99.90
2018-09-29T05:40:24.607Z,99.90
2018-09-29T05:42:28.908Z,99.90
2018-09-29T05:44:32.779Z,99.90
2018-09-29T05:46:38.841Z,99.90
2018-09-29T05:48:42.794Z,99.90
2018-09-29T05:50:47.083Z,99.90
2018-09-29T05:52:51.230Z,99.90
2018-09-29T05:54:55.265Z,99.90
2018-09-29T05:56:59.450Z,99.90
2018-09-29T05:59:03.565Z,99.90
2018-09-29T06:01:07.509Z,99.90
2018-09-29T06:03:11.575Z,99.90
2018-09-29T06:05:15.613Z,99.90
2018-09-29T06:07:19.687Z,99.90
2018-09-29T06:09:23.632Z,99.90
2018-09-29T06:11:27.868Z,99.90
2018-09-29T06:13:31.660Z,99.90
2018-09-29T06:15:36.519Z,99.90
2018-09-29T06:17:40.358Z,99.90
2018-09-29T06:19:44.464Z,99.90
2018-09-29T06:21:48.271Z,99.90
2018-09-29T06:23:52.558Z,99.90
2018-09-29T06:25:56.490Z,99.90
2018-09-29T06:28:01.129Z,99.90
2018-09-29T06:30:05.344Z,99.90
2018-09-29T06:32:09.375Z,99.90
2018-09-29T06:34:13.888Z,99.90
2018-09-29T06:36:18.224Z,99.90
2018-09-29T06:38:22.527Z,99.90
2018-09-29T06:40:26.973Z,99.90
2018-09-29T06:42:31.694Z,99.90
2018-09-29T06:44:35.551Z,99.90
2018-09-29T06:46:39.466Z,99.90
2018-09-29T06:48:43.652Z,99.90
2018-09-29T06:50:47.423Z,99.90
2018-09-29T06:52:51.216Z,99.90
2018-09-29T06:54:55.011Z,99.90
2018-09-29T06:56:58.855Z,99.90
2018-09-29T06:59:02.665Z,99.90
2018-09-29T07:01:06.535Z,99.90
2018-09-29T07:03:10.445Z,99.90
2018-09-29T07:05:14.223Z,99.90
2018-09-29T07:07:18.340Z,99.90
2018-09-29T07:09:22.124Z,99.90
2018-09-29T07:11:26.464Z,99.90
2018-09-29T07:13:30.271Z,99.90
2018-09-29T07:15:34.151Z,99.40
2018-09-29T07:17:37.960Z,99.50
2018-09-29T07:19:41.963Z,99.90
2018-09-29T07:21:45.802Z,99.10
2018-09-29T07:24:42.332Z,97.70
2018-09-29T07:26:46.322Z,96.20
2018-09-29T07:28:50.318Z,95.40
2018-09-29T07:30:54.536Z,94.70
2018-09-29T07:32:58.843Z,94.20
2018-09-29T07:35:02.727Z,93.50
2018-09-29T07:37:08.085Z,92.80
2018-09-29T07:39:12.569Z,92.90
2018-09-29T07:41:16.736Z,92.80
2018-09-29T07:43:20.612Z,93.30
2018-09-29T07:45:24.888Z,91.80
2018-09-29T07:47:28.969Z,92.80
2018-09-29T07:49:32.924Z,91.70
2018-09-29T07:51:36.942Z,90.70
2018-09-29T07:53:40.977Z,90.30
2018-09-29T07:55:44.895Z,88.90
2018-09-29T07:57:48.879Z,89.30
2018-09-29T07:59:52.936Z,90.90
2018-09-29T08:01:57.169Z,92.10
2018-09-29T08:04:01.312Z,94.40
2018-09-29T08:06:05.417Z,96.60
2018-09-29T08:08:09.429Z,97.50
2018-09-29T08:10:13.226Z,98.00
2018-09-29T08:12:17.088Z,99.50
2018-09-29T08:14:20.857Z,99.90
2018-09-29T08:16:24.633Z,99.90
2018-09-29T08:18:28.495Z,99.90
2018-09-29T08:20:32.788Z,99.90
2018-09-29T08:22:36.543Z,99.90
2018-09-29T08:24:40.279Z,99.90
2018-09-29T08:26:44.050Z,99.80
2018-09-29T08:28:47.826Z,99.90
2018-09-29T08:30:51.569Z,99.90
2018-09-29T08:32:55.366Z,99.90
2018-09-29T08:34:59.116Z,99.90
2018-09-29T08:37:02.886Z,99.90
2018-09-29T08:39:07.942Z,99.90
2018-09-29T08:41:11.821Z,99.90
2018-09-29T08:43:15.545Z,99.90
2018-09-29T08:45:19.355Z,99.90
2018-09-29T08:47:23.094Z,99.90
2018-09-29T08:49:26.859Z,99.90
2018-09-29T08:51:30.633Z,99.90
2018-09-29T08:53:34.415Z,99.90
2018-09-29T08:55:38.147Z,99.90
2018-09-29T08:57:41.915Z,99.90
2018-09-29T08:59:45.804Z,99.90
2018-09-29T09:01:56.943Z,99.80
2018-09-29T09:04:00.738Z,99.90
2018-09-29T09:06:04.524Z,99.50
2018-09-29T09:08:08.320Z,99.50
2018-09-29T09:10:12.091Z,99.90
2018-09-29T09:12:15.884Z,99.90
2018-09-29T09:14:19.698Z,99.90
2018-09-29T09:16:23.511Z,99.90
2018-09-29T09:18:27.288Z,99.90
2018-09-29T09:20:31.030Z,99.90
2018-09-29T09:22:35.172Z,99.90
2018-09-29T09:24:39.434Z,99.90
2018-09-29T09:26:43.568Z,99.90
2018-09-29T09:28:47.978Z,99.90
2018-09-29T09:30:52.117Z,99.90
2018-09-29T09:32:56.215Z,99.00
2018-09-29T09:35:00.492Z,98.80
2018-09-29T09:37:04.602Z,98.80
2018-09-29T09:39:09.790Z,98.80
2018-09-29T09:41:13.714Z,97.90
2018-09-29T09:43:17.508Z,98.30
2018-09-29T09:45:22.527Z,98.40
2018-09-29T09:47:26.610Z,98.90
2018-09-29T09:49:30.710Z,98.90
2018-09-29T09:51:34.826Z,97.90
2018-09-29T09:53:38.844Z,99.40
2018-09-29T09:55:43.109Z,99.90
2018-09-29T09:57:47.263Z,99.90
2018-09-29T09:59:51.449Z,98.90
2018-09-29T10:02:00.930Z,98.00
2018-09-29T10:04:05.702Z,95.90
2018-09-29T10:06:09.889Z,93.60
2018-09-29T10:08:14.160Z,94.10
2018-09-29T10:10:18.151Z,93.90
2018-09-29T10:12:22.233Z,93.50
2018-09-29T10:14:26.218Z,94.20
2018-09-29T10:16:30.344Z,92.50
2018-09-29T10:18:34.342Z,93.50
2018-09-29T10:20:38.407Z,92.30
2018-09-29T10:22:42.728Z,93.10
2018-09-29T10:24:46.710Z,92.60
2018-09-29T10:26:50.984Z,92.60
2018-09-29T10:28:54.753Z,90.00
2018-09-29T10:30:58.492Z,91.10
2018-09-29T10:33:02.293Z,87.00
2018-09-29T10:35:06.099Z,87.70
2018-09-29T10:37:09.899Z,89.10
2018-09-29T10:39:14.337Z,87.90
2018-09-29T10:41:18.146Z,88.90
2018-09-29T10:43:21.884Z,88.20
2018-09-29T10:45:25.829Z,90.00
2018-09-29T10:47:29.584Z,91.40
2018-09-29T10:49:33.375Z,91.80
2018-09-29T10:51:37.218Z,91.10
2018-09-29T10:53:41.020Z,88.50
2018-09-29T10:55:53.846Z,90.10
2018-09-29T10:57:58.246Z,90.00
2018-09-29T11:00:16.625Z,89.20
2018-09-29T11:02:20.770Z,87.60
2018-09-29T11:04:24.883Z,86.20
2018-09-29T11:06:28.675Z,86.40
2018-09-29T11:08:32.576Z,86.10
2018-09-29T11:10:36.499Z,87.50
2018-09-29T11:12:40.329Z,84.20
2018-09-29T11:15:06.542Z,83.30
2018-09-29T11:17:38.591Z,86.20
2018-09-29T11:19:42.984Z,86.80
2018-09-29T11:21:47.158Z,88.00
2018-09-29T11:23:51.234Z,87.50
2018-09-29T11:25:55.204Z,87.60
2018-09-29T11:27:59.151Z,87.50
2018-09-29T11:30:03.237Z,85.20
2018-09-29T11:32:07.345Z,82.90
2018-09-29T11:34:39.972Z,84.40
2018-09-29T11:36:46.128Z,80.90
2018-09-29T11:38:50.055Z,79.00
2018-09-29T11:40:53.931Z,79.50
2018-09-29T11:42:57.800Z,80.90
2018-09-29T11:45:01.625Z,79.10
2018-09-29T11:47:05.458Z,80.70
2018-09-29T11:49:09.236Z,78.50
2018-09-29T11:51:13.232Z,81.10
2018-09-29T11:53:16.952Z,80.70
2018-09-29T11:55:20.788Z,80.70
2018-09-29T11:57:24.595Z,81.60
2018-09-29T11:59:28.450Z,82.60
2018-09-29T12:01:32.326Z,82.80
2018-09-29T12:03:36.798Z,80.80
2018-09-29T12:05:41.123Z,81.00
2018-09-29T12:07:45.363Z,78.50
2018-09-29T12:09:50.513Z,75.80
2018-09-29T12:11:54.647Z,76.40
2018-09-29T12:13:58.622Z,77.40
2018-09-29T12:16:02.834Z,76.40
2018-09-29T12:18:07.212Z,77.30
2018-09-29T12:20:11.373Z,76.20
2018-09-29T12:22:15.348Z,74.20
2018-09-29T12:24:19.935Z,75.00
2018-09-29T12:26:23.981Z,75.60
2018-09-29T12:28:28.130Z,77.40
2018-09-29T12:30:32.322Z,78.20
2018-09-29T12:32:36.434Z,77.20
2018-09-29T12:34:40.560Z,76.90
2018-09-29T12:36:44.545Z,72.20
2018-09-29T12:38:48.598Z,72.30
2018-09-29T12:40:52.756Z,72.40
2018-09-29T12:42:56.957Z,73.50
2018-09-29T12:45:01.367Z,73.90
2018-09-29T12:47:06.036Z,72.70
2018-09-29T12:49:10.038Z,76.50
2018-09-29T12:51:13.841Z,77.30
2018-09-29T12:53:18.065Z,76.60
2018-09-29T12:55:22.315Z,75.60
2018-09-29T12:57:26.113Z,76.00
2018-09-29T12:59:29.875Z,77.80
2018-09-29T13:01:33.722Z,77.10
2018-09-29T13:03:37.856Z,76.50
2018-09-29T13:05:41.619Z,74.70
2018-09-29T13:07:45.607Z,75.40
2018-09-29T13:09:49.426Z,71.80
2018-09-29T13:11:53.177Z,75.90
2018-09-29T13:13:57.074Z,77.80
2018-09-29T13:16:00.811Z,72.10
2018-09-29T13:18:04.598Z,71.00
2018-09-29T13:20:08.443Z,73.20
2018-09-29T13:22:12.579Z,72.00
2018-09-29T13:24:16.676Z,73.60
2018-09-29T13:26:20.643Z,75.00
2018-09-29T13:28:24.558Z,76.10
2018-09-29T13:30:28.467Z,75.60
2018-09-29T13:32:32.425Z,74.90
2018-09-29T13:34:36.751Z,73.40
2018-09-29T13:36:40.746Z,73.00
2018-09-29T13:38:45.351Z,69.00
2018-09-29T13:40:49.436Z,70.10
2018-09-29T13:42:54.327Z,72.50
2018-09-29T13:44:58.853Z,70.40
2018-09-29T13:47:03.116Z,73.50
2018-09-29T13:49:07.332Z,74.60
2018-09-29T13:51:11.188Z,74.90
2018-09-29T13:53:15.149Z,74.60
2018-09-29T13:55:19.611Z,74.50
2018-09-29T13:57:23.513Z,77.50
2018-09-29T13:59:27.400Z,75.60
2018-09-29T14:01:31.498Z,71.90
2018-09-29T14:03:35.451Z,71.60
2018-09-29T14:05:39.617Z,70.00
2018-09-29T14:07:43.849Z,72.00
2018-09-29T14:09:48.061Z,72.80
2018-09-29T14:11:52.246Z,72.20
2018-09-29T14:13:56.590Z,73.10
2018-09-29T14:16:00.603Z,73.00
2018-09-29T14:18:04.646Z,72.70
2018-09-29T14:20:08.935Z,74.90
2018-09-29T14:22:12.896Z,75.50
2018-09-29T14:24:16.991Z,75.40
2018-09-29T14:26:20.997Z,74.90
2018-09-29T14:28:25.178Z,76.70
2018-09-29T14:30:29.141Z,73.20
2018-09-29T14:32:33.386Z,73.60
2018-09-29T14:34:37.357Z,72.90
2018-09-29T14:36:41.068Z,70.90
2018-09-29T14:38:44.818Z,73.30
2018-09-29T14:40:48.617Z,72.60
2018-09-29T14:42:52.387Z,73.30
2018-09-29T14:44:56.213Z,74.50
2018-09-29T14:47:00.097Z,75.30
2018-09-29T14:49:04.020Z,74.10
2018-09-29T14:51:08.295Z,74.80
2018-09-29T14:53:12.526Z,75.00
2018-09-29T14:55:16.720Z,74.50
2018-09-29T14:57:20.567Z,76.60
2018-09-29T14:59:24.549Z,75.70
2018-09-29T15:01:28.654Z,71.80
2018-09-29T15:03:32.475Z,73.50
2018-09-29T15:05:36.503Z,70.60
2018-09-29T15:07:40.659Z,73.40
2018-09-29T15:09:44.808Z,74.60
2018-09-29T15:11:48.764Z,75.00
2018-09-29T15:13:52.840Z,76.40
2018-09-29T15:15:56.875Z,75.10
2018-09-29T15:18:02.297Z,77.10
2018-09-29T15:20:07.344Z,77.50
2018-09-29T15:22:11.304Z,78.40
2018-09-29T15:24:15.383Z,78.20
2018-09-29T15:26:19.671Z,78.60
2018-09-29T15:28:23.919Z,78.30
2018-09-29T15:30:28.313Z,76.60
2018-09-29T15:32:32.335Z,76.20
2018-09-29T15:34:36.428Z,73.50
2018-09-29T15:36:40.388Z,73.50
2018-09-29T15:38:44.360Z,74.90
2018-09-29T15:40:48.785Z,75.80
2018-09-29T15:42:53.027Z,75.20
2018-09-29T15:44:57.090Z,76.40
2018-09-29T15:47:01.125Z,77.90
2018-09-29T15:49:05.272Z,79.60
2018-09-29T15:51:09.590Z,78.60
2018-09-29T15:53:14.397Z,79.80
2018-09-29T15:55:18.744Z,81.40
2018-09-29T15:57:23.306Z,81.40
2018-09-29T15:59:27.450Z,78.70
2018-09-29T16:01:31.562Z,78.80
2018-09-29T16:03:36.638Z,74.80
2018-09-29T16:05:40.775Z,75.30
2018-09-29T16:07:46.128Z,78.20
2018-09-29T16:09:50.471Z,78.90
2018-09-29T16:11:55.145Z,80.00
2018-09-29T16:13:59.272Z,79.40
2018-09-29T16:16:03.420Z,80.50
2018-09-29T16:18:07.466Z,81.30
2018-09-29T16:20:11.780Z,79.40
2018-09-29T16:22:15.955Z,80.60
2018-09-29T16:24:20.159Z,80.80
2018-09-29T16:26:24.586Z,82.30
2018-09-29T16:28:28.720Z,81.90
2018-09-29T16:30:33.776Z,82.50
2018-09-29T16:32:38.355Z,80.50
2018-09-29T16:34:42.880Z,80.80
2018-09-29T16:36:46.830Z,82.50
2018-09-29T16:38:51.239Z,82.70
2018-09-29T16:40:55.226Z,87.60
2018-09-29T16:42:59.239Z,88.10
2018-09-29T16:45:03.878Z,90.90
2018-09-29T16:47:07.880Z,92.50
2018-09-29T16:49:11.775Z,92.30
2018-09-29T16:51:17.169Z,94.00
2018-09-29T16:53:21.433Z,94.40
2018-09-29T16:55:25.929Z,95.00
2018-09-29T16:57:30.051Z,95.90
2018-09-29T16:59:34.180Z,95.80
2018-09-29T17:01:38.244Z,95.20
2018-09-29T17:03:42.532Z,94.80
2018-09-29T17:05:46.478Z,94.80
2018-09-29T17:07:50.400Z,95.40
2018-09-29T17:09:54.510Z,95.80
2018-09-29T17:11:58.551Z,96.70
2018-09-29T17:14:02.853Z,97.60
2018-09-29T17:16:07.229Z,97.90
2018-09-29T17:18:11.293Z,98.30
2018-09-29T17:20:15.415Z,98.70
2018-09-29T17:22:19.706Z,99.50
2018-09-29T17:24:23.766Z,99.90
2018-09-29T17:26:28.623Z,99.90
2018-09-29T17:28:33.010Z,99.90
2018-09-29T17:30:37.039Z,99.90
2018-09-29T17:32:41.210Z,99.90
2018-09-29T17:34:45.280Z,99.90
2018-09-29T17:36:49.582Z,99.90
2018-09-29T17:38:54.746Z,99.90
2018-09-29T17:40:59.044Z,99.90
2018-09-29T17:43:03.184Z,99.90
2018-09-29T17:45:07.572Z,99.90
2018-09-29T17:47:11.642Z,99.90
2018-09-29T17:49:16.003Z,99.90
2018-09-29T17:51:20.109Z,99.90
2018-09-29T17:53:24.115Z,99.90
2018-09-29T17:55:28.132Z,99.90
2018-09-29T17:57:31.981Z,99.90
2018-09-29T17:59:36.082Z,99.90
2018-09-29T18:01:40.425Z,99.90
2018-09-29T18:03:44.776Z,99.90
2018-09-29T18:05:48.876Z,99.90
2018-09-29T18:07:53.184Z,99.90
2018-09-29T18:09:57.721Z,99.90
2018-09-29T18:12:03.068Z,99.90
2018-09-29T18:14:07.196Z,99.90
2018-09-29T18:16:11.163Z,99.90
2018-09-29T18:18:15.112Z,99.90
2018-09-29T18:20:19.398Z,99.90
2018-09-29T18:22:23.717Z,99.90
2018-09-29T18:24:31.865Z,99.90
2018-09-29T18:26:35.921Z,99.90
2018-09-29T18:28:40.289Z,99.90
2018-09-29T18:30:44.557Z,99.90
2018-09-29T18:32:48.889Z,99.90
2018-09-29T18:34:53.174Z,99.90
2018-09-29T18:36:57.560Z,99.90
2018-09-29T18:39:01.511Z,99.90
2018-09-29T18:41:05.959Z,99.90
2018-09-29T18:43:10.186Z,99.90
2018-09-29T18:45:14.613Z,99.90
2018-09-29T18:47:18.614Z,99.90
2018-09-29T18:49:22.738Z,99.90
2018-09-29T18:51:26.646Z,99.90
2018-09-29T18:53:30.607Z,99.90
2018-09-29T18:55:34.841Z,99.90
2018-09-29T18:57:38.899Z,99.90
2018-09-29T18:59:42.993Z,99.90
2018-09-29T19:01:47.205Z,99.90
2018-09-29T19:03:51.452Z,99.90
2018-09-29T19:05:55.785Z,99.90
2018-09-29T19:07:59.899Z,99.90
2018-09-29T19:10:04.094Z,99.90
2018-09-29T19:12:08.055Z,99.90
2018-09-29T19:14:11.999Z,99.90
2018-09-29T19:16:16.308Z,99.90
2018-09-29T19:18:20.874Z,99.90
2018-09-29T19:20:25.432Z,99.90
2018-09-29T19:22:29.541Z,99.90
2018-09-29T19:24:33.556Z,99.90
2018-09-29T19:26:37.655Z,99.90
2018-09-29T19:28:41.556Z,99.90
2018-09-29T19:30:46.025Z,99.90
2018-09-29T19:32:49.962Z,99.90
2018-09-29T19:34:53.732Z,99.90
2018-09-29T19:36:57.421Z,99.90
2018-09-29T19:39:01.379Z,99.90
2018-09-29T19:41:05.423Z,99.90
2018-09-29T19:43:10.204Z,99.90
2018-09-29T19:45:14.428Z,99.90
2018-09-29T19:47:19.404Z,99.90
2018-09-29T19:49:24.047Z,99.90
2018-09-29T19:51:28.841Z,99.90
2018-09-29T19:53:33.282Z,99.90
2018-09-29T19:55:38.098Z,99.90
2018-09-29T19:57:42.437Z,99.90
2018-09-29T19:59:47.499Z,99.90
2018-09-29T20:01:51.504Z,99.90
2018-09-29T20:03:56.235Z,99.90
2018-09-29T20:06:01.222Z,99.90
2018-09-29T20:08:05.742Z,99.90
2018-09-29T20:10:09.675Z,99.90
2018-09-29T20:12:13.465Z,99.90
2018-09-29T20:14:17.211Z,99.90
2018-09-29T20:16:21.077Z,99.90
2018-09-29T20:18:25.136Z,99.90
2018-09-29T20:20:29.128Z,99.90
2018-09-29T20:22:33.246Z,99.90
2018-09-29T20:24:37.499Z,99.90
2018-09-29T20:26:41.492Z,99.90
2018-09-29T20:28:45.999Z,99.90
2018-09-29T20:30:50.530Z,99.90
2018-09-29T20:32:54.614Z,99.90
2018-09-29T20:34:58.791Z,99.90
2018-09-29T20:37:03.073Z,99.90
2018-09-29T20:39:10.406Z,99.90
2018-09-29T20:41:14.491Z,99.90
2018-09-29T20:43:18.590Z,99.90
2018-09-29T20:45:22.724Z,99.90
2018-09-29T20:47:26.782Z,99.90
2018-09-29T20:49:30.928Z,99.90
2018-09-29T20:51:35.377Z,99.90
2018-09-29T20:53:39.599Z,99.90
2018-09-29T20:55:43.866Z,99.90
2018-09-29T20:57:48.136Z,99.90
2018-09-29T20:59:52.310Z,99.90
2018-09-29T21:01:56.467Z,99.90
2018-09-29T21:04:00.542Z,99.90
2018-09-29T21:06:05.004Z,99.90
2018-09-29T21:08:09.256Z,99.90
2018-09-29T21:10:13.295Z,99.90
2018-09-29T21:12:17.280Z,99.90
2018-09-29T21:14:21.398Z,99.90
2018-09-29T21:16:25.421Z,99.90
2018-09-29T21:18:29.705Z,99.90
2018-09-29T21:20:33.724Z,99.90
2018-09-29T21:22:37.921Z,99.90
2018-09-29T21:24:41.947Z,99.90
2018-09-29T21:26:46.001Z,99.90
2018-09-29T21:28:49.948Z,99.90
2018-09-29T21:30:54.037Z,99.90
2018-09-29T21:32:58.240Z,99.90
2018-09-29T21:35:02.435Z,99.90
2018-09-29T21:37:06.404Z,99.90
2018-09-29T21:39:10.405Z,99.90
2018-09-29T21:41:14.359Z,99.90
2018-09-29T21:43:18.404Z,99.90
2018-09-29T21:45:22.412Z,99.90
2018-09-29T21:47:26.775Z,99.90
2018-09-29T21:49:31.281Z,99.90
2018-09-29T21:51:35.467Z,99.90
2018-09-29T21:53:39.499Z,99.90
2018-09-29T21:55:43.572Z,99.90
2018-09-29T21:57:47.876Z,99.90
2018-09-29T21:59:51.958Z,99.90
2018-09-29T22:01:55.988Z,99.90
2018-09-29T22:04:01.408Z,99.90
2018-09-29T22:06:05.584Z,99.90
2018-09-29T22:08:09.614Z,99.90
2018-09-29T22:10:13.556Z,99.90
2018-09-29T22:12:17.780Z,99.90
2018-09-29T22:14:22.148Z,99.90
2018-09-29T22:16:26.308Z,99.90
2018-09-29T22:18:30.209Z,99.90
2018-09-29T22:20:34.523Z,99.90
2018-09-29T22:22:38.497Z,99.90
2018-09-29T22:24:42.972Z,99.90
2018-09-29T22:26:47.944Z,99.90
2018-09-29T22:28:52.035Z,99.90
2018-09-29T22:30:55.939Z,99.90
2018-09-29T22:32:59.920Z,99.90
2018-09-29T22:35:04.033Z,99.90
2018-09-29T22:37:08.009Z,99.90
2018-09-29T22:39:12.653Z,99.90
2018-09-29T22:41:16.921Z,99.90
2018-09-29T22:43:20.903Z,99.90
2018-09-29T22:45:24.951Z,99.90
2018-09-29T22:47:28.905Z,99.90
2018-09-29T22:49:32.881Z,99.90
2018-09-29T22:51:36.858Z,99.90
2018-09-29T22:53:40.777Z,99.90
2018-09-29T22:55:44.947Z,99.90
2018-09-29T22:57:48.955Z,99.90
2018-09-29T22:59:53.091Z,99.90
2018-09-29T23:01:57.019Z,99.90
2018-09-29T23:04:01.018Z,99.90
2018-09-29T23:06:05.108Z,99.90
2018-09-29T23:08:09.325Z,99.90
2018-09-29T23:10:13.341Z,99.90
2018-09-29T23:12:17.446Z,99.90
2018-09-29T23:14:21.599Z,99.90
2018-09-29T23:16:25.772Z,99.90
2018-09-29T23:18:36.323Z,99.90
2018-09-29T23:20:40.375Z,99.90
2018-09-29T23:22:44.595Z,99.90
2018-09-29T23:24:48.624Z,99.90
2018-09-29T23:26:52.589Z,99.90
2018-09-29T23:28:56.559Z,99.90
2018-09-29T23:31:00.621Z,99.90
2018-09-29T23:33:04.643Z,99.90
2018-09-29T23:35:08.811Z,99.90
2018-09-29T23:37:12.885Z,99.90
2018-09-29T23:39:16.986Z,99.90
2018-09-29T23:41:20.928Z,99.90
2018-09-29T23:43:25.195Z,99.90
2018-09-29T23:45:29.269Z,99.90
2018-09-29T23:47:33.406Z,99.90
2018-09-29T23:49:37.392Z,99.90
2018-09-29T23:51:41.436Z,99.90
2018-09-29T23:53:45.614Z,99.90
2018-09-29T23:55:49.488Z,99.90
2018-09-29T23:57:53.426Z,99.90
2018-09-29T23:59:57.446Z,99.90
